sensor_id;sensor_type;location;lat;lon;timestamp;pressure;altitude;pressure_sealevel;temperature;humidity
20860;BME280;10590;48.154;11.514;2023-03-26T00:02:05;95228.94;;;7.27;63.59
20860;BME280;10590;48.154;11.514;2023-03-26T00:07:08;95262.34;;;7.50;63.11
20860;BME280;10590;48.154;11.514;2023-03-26T00:12:10;95247.28;;;7.37;63.21
20860;BME280;10590;48.154;11.514;2023-03-26T00:17:11;95249.22;;;7.23;63.95
20860;BME280;10590;48.154;11.514;2023-03-26T00:22:14;95250.97;;;7.27;63.84
20860;BME280;10590;48.154;11.514;2023-03-26T00:27:16;95233.34;;;7.09;63.78
20860;BME280;10590;48.154;11.514;2023-03-26T00:32:18;95251.81;;;7.14;64.26
20860;BME280;10590;48.154;11.514;2023-03-26T00:37:21;95246.31;;;7.11;64.58
20860;BME280;10590;48.154;11.514;2023-03-26T00:42:25;95227.91;;;6.92;64.87
20860;BME280;10590;48.154;11.514;2023-03-26T00:47:27;95239.50;;;6.96;65.13
20860;BME280;10590;48.154;11.514;2023-03-26T00:52:31;95227.91;;;6.92;65.37
20860;BME280;10590;48.154;11.514;2023-03-26T00:57:35;95222.03;;;6.95;65.23
20860;BME280;10590;48.154;11.514;2023-03-26T01:02:36;95231.84;;;6.94;65.14
20860;BME280;10590;48.154;11.514;2023-03-26T01:07:40;95240.81;;;6.85;65.60
20860;BME280;10590;48.154;11.514;2023-03-26T01:12:42;95238.75;;;6.82;65.46
20860;BME280;10590;48.154;11.514;2023-03-26T01:17:43;95232.88;;;6.71;65.78
20860;BME280;10590;48.154;11.514;2023-03-26T01:22:50;95238.00;;;6.67;66.20
20860;BME280;10590;48.154;11.514;2023-03-26T01:27:55;95236.50;;;6.75;66.50
20860;BME280;10590;48.154;11.514;2023-03-26T01:33:00;95219.28;;;6.64;66.36
20860;BME280;10590;48.154;11.514;2023-03-26T01:38:14;95224.09;;;6.62;66.63
20860;BME280;10590;48.154;11.514;2023-03-26T01:43:30;95212.50;;;6.58;66.92
20860;BME280;10590;48.154;11.514;2023-03-26T01:48:37;95217.31;;;6.56;66.96
20860;BME280;10590;48.154;11.514;2023-03-26T01:53:42;95203.72;;;6.49;67.24
20860;BME280;10590;48.154;11.514;2023-03-26T01:58:57;95210.09;;;6.48;67.11
20860;BME280;10590;48.154;11.514;2023-03-26T02:04:08;95190.28;;;6.45;67.20
20860;BME280;10590;48.154;11.514;2023-03-26T02:09:13;95188.03;;;6.38;67.79
20860;BME280;10590;48.154;11.514;2023-03-26T02:14:18;95176.22;;;6.45;67.62
20860;BME280;10590;48.154;11.514;2023-03-26T02:19:19;95176.84;;;6.42;67.53
20860;BME280;10590;48.154;11.514;2023-03-26T02:24:23;95172.13;;;6.38;67.68
20860;BME280;10590;48.154;11.514;2023-03-26T02:29:27;95171.31;;;6.52;67.74
20860;BME280;10590;48.154;11.514;2023-03-26T02:34:28;95165.63;;;6.45;67.62
20860;BME280;10590;48.154;11.514;2023-03-26T02:39:30;95160.81;;;6.47;67.79
20860;BME280;10590;48.154;11.514;2023-03-26T02:44:33;95150.69;;;6.49;67.56
20860;BME280;10590;48.154;11.514;2023-03-26T02:49:35;95157.63;;;6.58;67.60
20860;BME280;10590;48.154;11.514;2023-03-26T02:54:36;95145.16;;;6.59;67.73
20860;BME280;10590;48.154;11.514;2023-03-26T02:59:39;95150.72;;;6.71;67.09
20860;BME280;10590;48.154;11.514;2023-03-26T03:04:41;95139.25;;;6.62;67.88
20860;BME280;10590;48.154;11.514;2023-03-26T03:09:43;95119.78;;;6.66;67.81
20860;BME280;10590;48.154;11.514;2023-03-26T03:14:46;95102.38;;;6.74;67.20
20860;BME280;10590;48.154;11.514;2023-03-26T03:19:47;95106.59;;;6.75;67.26
20860;BME280;10590;48.154;11.514;2023-03-26T03:24:49;95093.09;;;6.63;67.77
20860;BME280;10590;48.154;11.514;2023-03-26T03:29:52;95088.75;;;6.67;67.78
20860;BME280;10590;48.154;11.514;2023-03-26T03:34:55;95083.94;;;6.69;67.46
20860;BME280;10590;48.154;11.514;2023-03-26T03:39:56;95093.47;;;6.70;67.33
20860;BME280;10590;48.154;11.514;2023-03-26T03:44:59;95068.34;;;6.67;67.23
20860;BME280;10590;48.154;11.514;2023-03-26T03:50:02;95077.47;;;6.84;67.32
20860;BME280;10590;48.154;11.514;2023-03-26T03:55:04;95070.59;;;6.52;67.91
20860;BME280;10590;48.154;11.514;2023-03-26T04:00:09;95061.16;;;6.68;67.85
20860;BME280;10590;48.154;11.514;2023-03-26T04:05:11;95069.22;;;6.85;67.56
20860;BME280;10590;48.154;11.514;2023-03-26T04:10:13;95047.53;;;6.30;68.56
20860;BME280;10590;48.154;11.514;2023-03-26T04:15:17;95044.72;;;5.76;71.29
20860;BME280;10590;48.154;11.514;2023-03-26T04:20:19;95047.72;;;6.33;69.94
20860;BME280;10590;48.154;11.514;2023-03-26T04:25:21;95032.16;;;6.41;69.39
20860;BME280;10590;48.154;11.514;2023-03-26T04:30:31;95033.25;;;6.39;69.33
20860;BME280;10590;48.154;11.514;2023-03-26T04:35:33;95022.34;;;6.41;69.01
20860;BME280;10590;48.154;11.514;2023-03-26T04:40:35;95031.50;;;6.57;68.84
20860;BME280;10590;48.154;11.514;2023-03-26T04:45:39;95027.03;;;6.44;68.64
20860;BME280;10590;48.154;11.514;2023-03-26T04:50:42;95014.66;;;6.62;69.03
20860;BME280;10590;48.154;11.514;2023-03-26T04:55:47;95003.75;;;6.63;69.27
20860;BME280;10590;48.154;11.514;2023-03-26T05:00:52;95000.13;;;6.90;68.15
20860;BME280;10590;48.154;11.514;2023-03-26T05:05:54;94992.19;;;6.90;67.99
20860;BME280;10590;48.154;11.514;2023-03-26T05:10:56;94979.75;;;6.99;67.35
20860;BME280;10590;48.154;11.514;2023-03-26T05:15:59;94978.81;;;6.95;67.37
20860;BME280;10590;48.154;11.514;2023-03-26T05:21:00;94956.81;;;7.03;66.70
20860;BME280;10590;48.154;11.514;2023-03-26T05:26:02;94972.59;;;7.09;66.97
20860;BME280;10590;48.154;11.514;2023-03-26T05:31:06;94970.91;;;7.13;67.25
20860;BME280;10590;48.154;11.514;2023-03-26T05:36:09;94954.00;;;7.00;66.61
20860;BME280;10590;48.154;11.514;2023-03-26T05:41:12;94964.69;;;7.26;66.42
20860;BME280;10590;48.154;11.514;2023-03-26T05:46:16;94957.03;;;7.33;66.61
20860;BME280;10590;48.154;11.514;2023-03-26T05:51:19;94939.41;;;7.37;65.48
20860;BME280;10590;48.154;11.514;2023-03-26T05:56:22;94919.56;;;7.43;65.47
20860;BME280;10590;48.154;11.514;2023-03-26T06:01:25;94918.31;;;7.32;66.17
20860;BME280;10590;48.154;11.514;2023-03-26T06:06:28;94919.56;;;7.60;65.29
20860;BME280;10590;48.154;11.514;2023-03-26T06:11:30;94908.50;;;7.84;64.12
20860;BME280;10590;48.154;11.514;2023-03-26T06:16:33;94913.47;;;8.03;63.17
20860;BME280;10590;48.154;11.514;2023-03-26T06:21:35;94902.66;;;8.08;62.71
20860;BME280;10590;48.154;11.514;2023-03-26T06:26:37;94911.47;;;7.83;63.60
20860;BME280;10590;48.154;11.514;2023-03-26T06:31:40;94915.19;;;7.99;63.68
20860;BME280;10590;48.154;11.514;2023-03-26T06:36:42;94902.91;;;8.32;62.29
20860;BME280;10590;48.154;11.514;2023-03-26T06:41:43;94898.19;;;7.91;63.42
20860;BME280;10590;48.154;11.514;2023-03-26T06:46:47;94896.91;;;8.53;60.73
20860;BME280;10590;48.154;11.514;2023-03-26T06:51:49;94892.28;;;8.41;61.80
20860;BME280;10590;48.154;11.514;2023-03-26T06:56:51;94892.59;;;8.40;62.08
20860;BME280;10590;48.154;11.514;2023-03-26T07:01:54;94868.34;;;8.41;61.11
20860;BME280;10590;48.154;11.514;2023-03-26T07:06:56;94883.22;;;8.42;60.24
20860;BME280;10590;48.154;11.514;2023-03-26T07:11:58;94882.31;;;8.21;60.64
20860;BME280;10590;48.154;11.514;2023-03-26T07:17:01;94872.06;;;8.02;62.74
20860;BME280;10590;48.154;11.514;2023-03-26T07:22:03;94858.03;;;7.67;66.10
20860;BME280;10590;48.154;11.514;2023-03-26T07:27:34;94864.91;;;7.59;68.42
20860;BME280;10590;48.154;11.514;2023-03-26T07:32:42;94818.41;;;7.36;71.91
20860;BME280;10590;48.154;11.514;2023-03-26T07:37:57;94815.91;;;7.48;72.74
20860;BME280;10590;48.154;11.514;2023-03-26T07:43:06;94814.38;;;7.21;73.71
20860;BME280;10590;48.154;11.514;2023-03-26T07:48:18;94792.19;;;7.34;73.39
20860;BME280;10590;48.154;11.514;2023-03-26T07:53:24;94787.81;;;6.87;75.10
20860;BME280;10590;48.154;11.514;2023-03-26T07:58:44;94773.78;;;6.69;75.79
20860;BME280;10590;48.154;11.514;2023-03-26T08:04:00;94756.47;;;6.80;74.11
20860;BME280;10590;48.154;11.514;2023-03-26T08:09:11;94739.44;;;7.80;73.31
20860;BME280;10590;48.154;11.514;2023-03-26T08:14:26;94729.56;;;7.51;75.14
20860;BME280;10590;48.154;11.514;2023-03-26T08:19:42;94726.16;;;7.80;72.43
20860;BME280;10590;48.154;11.514;2023-03-26T08:24:59;94736.66;;;8.14;69.29
20860;BME280;10590;48.154;11.514;2023-03-26T08:30:10;94719.34;;;8.38;66.89
20860;BME280;10590;48.154;11.514;2023-03-26T08:35:16;94698.56;;;7.72;70.69
20860;BME280;10590;48.154;11.514;2023-03-26T08:40:42;94693.47;;;7.58;69.56
20860;BME280;10590;48.154;11.514;2023-03-26T09:02:51;94710.41;;;8.13;66.01
20860;BME280;10590;48.154;11.514;2023-03-26T09:08:29;94703.19;;;7.92;69.53
20860;BME280;10590;48.154;11.514;2023-03-26T09:13:55;94688.44;;;7.65;68.47
20860;BME280;10590;48.154;11.514;2023-03-26T09:25:14;94673.41;;;7.31;72.19
20860;BME280;10590;48.154;11.514;2023-03-26T09:36:05;94659.72;;;7.59;74.07
20860;BME280;10590;48.154;11.514;2023-03-26T09:41:29;94678.22;;;7.38;75.12
20860;BME280;10590;48.154;11.514;2023-03-26T09:46:35;94677.44;;;7.38;77.00
20860;BME280;10590;48.154;11.514;2023-03-26T09:51:54;94672.56;;;7.48;76.11
20860;BME280;10590;48.154;11.514;2023-03-26T09:57:01;94661.97;;;7.48;77.08
20860;BME280;10590;48.154;11.514;2023-03-26T10:02:19;94662.25;;;7.55;77.07
20860;BME280;10590;48.154;11.514;2023-03-26T10:07:50;94634.97;;;7.76;76.38
20860;BME280;10590;48.154;11.514;2023-03-26T10:12:58;94632.81;;;7.40;76.38
20860;BME280;10590;48.154;11.514;2023-03-26T10:18:11;94624.72;;;7.65;76.39
20860;BME280;10590;48.154;11.514;2023-03-26T10:23:30;94646.03;;;7.48;76.41
20860;BME280;10590;48.154;11.514;2023-03-26T10:28:52;94636.69;;;7.80;77.51
20860;BME280;10590;48.154;11.514;2023-03-26T10:34:03;94645.59;;;7.76;76.09
20860;BME280;10590;48.154;11.514;2023-03-26T10:39:22;94639.56;;;7.28;78.33
20860;BME280;10590;48.154;11.514;2023-03-26T10:45:02;94664.44;;;7.53;78.22
20860;BME280;10590;48.154;11.514;2023-03-26T10:50:25;94671.38;;;7.37;78.73
20860;BME280;10590;48.154;11.514;2023-03-26T10:55:35;94652.50;;;7.30;80.90
20860;BME280;10590;48.154;11.514;2023-03-26T11:00:41;94654.38;;;7.29;80.61
20860;BME280;10590;48.154;11.514;2023-03-26T11:05:49;94625.81;;;7.26;81.17
20860;BME280;10590;48.154;11.514;2023-03-26T11:10:56;94623.66;;;7.58;80.02
20860;BME280;10590;48.154;11.514;2023-03-26T11:16:02;94620.31;;;7.70;79.23
20860;BME280;10590;48.154;11.514;2023-03-26T11:21:08;94618.56;;;7.82;78.16
20860;BME280;10590;48.154;11.514;2023-03-26T11:26:15;94612.16;;;8.04;77.56
20860;BME280;10590;48.154;11.514;2023-03-26T11:31:23;94603.84;;;7.85;77.57
20860;BME280;10590;48.154;11.514;2023-03-26T11:36:32;94605.75;;;8.05;77.02
20860;BME280;10590;48.154;11.514;2023-03-26T11:41:38;94615.38;;;7.59;76.77
20860;BME280;10590;48.154;11.514;2023-03-26T11:46:42;94622.81;;;7.37;79.76
20860;BME280;10590;48.154;11.514;2023-03-26T11:51:46;94590.16;;;7.74;78.72
20860;BME280;10590;48.154;11.514;2023-03-26T11:56:53;94607.69;;;7.96;78.61
20860;BME280;10590;48.154;11.514;2023-03-26T12:01:58;94608.97;;;7.90;79.02
20860;BME280;10590;48.154;11.514;2023-03-26T12:07:16;94578.41;;;7.84;77.03
20860;BME280;10590;48.154;11.514;2023-03-26T12:12:24;94587.88;;;9.01;73.18
20860;BME280;10590;48.154;11.514;2023-03-26T12:17:30;94585.19;;;9.71;69.61
20860;BME280;10590;48.154;11.514;2023-03-26T12:22:34;94572.72;;;9.50;69.59
20860;BME280;10590;48.154;11.514;2023-03-26T12:27:42;94569.38;;;8.92;71.33
20860;BME280;10590;48.154;11.514;2023-03-26T12:32:44;94575.41;;;9.38;69.89
20860;BME280;10590;48.154;11.514;2023-03-26T12:37:46;94541.00;;;9.33;70.29
20860;BME280;10590;48.154;11.514;2023-03-26T12:42:52;94560.03;;;8.86;71.50
20860;BME280;10590;48.154;11.514;2023-03-26T12:47:56;94571.84;;;9.22;71.60
20860;BME280;10590;48.154;11.514;2023-03-26T12:53:20;94572.94;;;9.09;70.74
20860;BME280;10590;48.154;11.514;2023-03-26T12:58:42;94556.75;;;9.02;70.58
20860;BME280;10590;48.154;11.514;2023-03-26T13:04:11;94547.31;;;9.16;70.42
20860;BME280;10590;48.154;11.514;2023-03-26T13:09:35;94555.44;;;9.20;70.31
20860;BME280;10590;48.154;11.514;2023-03-26T13:14:57;94548.66;;;9.10;70.35
20860;BME280;10590;48.154;11.514;2023-03-26T13:20:05;94527.69;;;8.97;70.46
20860;BME280;10590;48.154;11.514;2023-03-26T13:25:22;94539.69;;;9.27;70.31
20860;BME280;10590;48.154;11.514;2023-03-26T13:30:33;94524.38;;;9.12;70.28
20860;BME280;10590;48.154;11.514;2023-03-26T13:35:44;94532.56;;;9.07;70.74
20860;BME280;10590;48.154;11.514;2023-03-26T13:40:53;94532.56;;;8.94;70.29
20860;BME280;10590;48.154;11.514;2023-03-26T13:46:06;94519.38;;;8.86;70.41
20860;BME280;10590;48.154;11.514;2023-03-26T13:51:13;94520.03;;;8.95;70.08
20860;BME280;10590;48.154;11.514;2023-03-26T13:56:22;94511.63;;;8.93;70.11
20860;BME280;10590;48.154;11.514;2023-03-26T14:01:30;94502.63;;;9.34;69.17
20860;BME280;10590;48.154;11.514;2023-03-26T14:06:40;94489.78;;;9.12;69.51
20860;BME280;10590;48.154;11.514;2023-03-26T14:11:52;94528.78;;;8.50;68.09
20860;BME280;10590;48.154;11.514;2023-03-26T14:17:04;94508.06;;;8.23;67.75
20860;BME280;10590;48.154;11.514;2023-03-26T14:22:17;94492.38;;;7.97;65.67
20860;BME280;10590;48.154;11.514;2023-03-26T14:27:37;94490.09;;;8.41;64.74
20860;BME280;10590;48.154;11.514;2023-03-26T14:32:56;94494.53;;;8.16;64.66
20860;BME280;10590;48.154;11.514;2023-03-26T14:38:24;94466.06;;;8.04;65.08
20860;BME280;10590;48.154;11.514;2023-03-26T14:43:51;94460.88;;;8.08;65.62
20860;BME280;10590;48.154;11.514;2023-03-26T14:49:18;94438.78;;;8.28;64.54
20860;BME280;10590;48.154;11.514;2023-03-26T14:54:23;94437.75;;;8.53;63.38
20860;BME280;10590;48.154;11.514;2023-03-26T15:16:13;94436.75;;;8.58;64.20
20860;BME280;10590;48.154;11.514;2023-03-26T15:22:10;94417.13;;;8.38;65.25
20860;BME280;10590;48.154;11.514;2023-03-26T15:28:04;94426.88;;;8.58;65.12
20860;BME280;10590;48.154;11.514;2023-03-26T15:39:42;94396.13;;;8.70;66.63
20860;BME280;10590;48.154;11.514;2023-03-26T15:45:03;94424.94;;;8.68;68.12
20860;BME280;10590;48.154;11.514;2023-03-26T15:50:25;94426.09;;;8.46;68.31
20860;BME280;10590;48.154;11.514;2023-03-26T15:55:41;94441.50;;;8.52;61.58
20860;BME280;10590;48.154;11.514;2023-03-26T16:00:55;94430.00;;;8.15;59.45
20860;BME280;10590;48.154;11.514;2023-03-26T16:06:31;94396.22;;;8.04;58.08
20860;BME280;10590;48.154;11.514;2023-03-26T16:11:53;94425.44;;;8.37;56.19
20860;BME280;10590;48.154;11.514;2023-03-26T16:17:01;94419.78;;;8.05;59.96
20860;BME280;10590;48.154;11.514;2023-03-26T16:22:05;94410.66;;;7.82;61.34
20860;BME280;10590;48.154;11.514;2023-03-26T16:27:30;94393.22;;;7.72;62.59
20860;BME280;10590;48.154;11.514;2023-03-26T16:32:39;94400.50;;;7.96;62.15
20860;BME280;10590;48.154;11.514;2023-03-26T16:37:47;94389.25;;;7.78;63.19
20860;BME280;10590;48.154;11.514;2023-03-26T16:42:53;94375.03;;;7.83;63.41
20860;BME280;10590;48.154;11.514;2023-03-26T16:48:08;94364.13;;;7.76;64.14
20860;BME280;10590;48.154;11.514;2023-03-26T16:53:23;94378.13;;;7.85;64.79
20860;BME280;10590;48.154;11.514;2023-03-26T16:58:32;94376.44;;;7.80;64.89
20860;BME280;10590;48.154;11.514;2023-03-26T17:03:49;94378.06;;;7.73;65.45
20860;BME280;10590;48.154;11.514;2023-03-26T17:09:00;94380.91;;;7.67;65.88
20860;BME280;10590;48.154;11.514;2023-03-26T17:14:11;94383.81;;;7.75;65.44
20860;BME280;10590;48.154;11.514;2023-03-26T17:19:25;94380.06;;;7.76;65.34
20860;BME280;10590;48.154;11.514;2023-03-26T17:24:38;94388.88;;;7.67;65.16
20860;BME280;10590;48.154;11.514;2023-03-26T17:30:20;94380.66;;;7.60;64.62
20860;BME280;10590;48.154;11.514;2023-03-26T17:35:41;94388.97;;;7.59;64.57
20860;BME280;10590;48.154;11.514;2023-03-26T17:40:46;94418.59;;;7.61;65.19
20860;BME280;10590;48.154;11.514;2023-03-26T17:45:49;94431.50;;;7.50;65.85
20860;BME280;10590;48.154;11.514;2023-03-26T17:50:57;94458.09;;;7.42;67.69
20860;BME280;10590;48.154;11.514;2023-03-26T17:56:05;94475.75;;;7.17;69.21
20860;BME280;10590;48.154;11.514;2023-03-26T18:01:25;94471.81;;;6.47;72.27
20860;BME280;10590;48.154;11.514;2023-03-26T18:06:42;94479.50;;;6.31;72.44
20860;BME280;10590;48.154;11.514;2023-03-26T18:12:05;94469.41;;;6.16;73.16
20860;BME280;10590;48.154;11.514;2023-03-26T18:17:11;94470.81;;;5.96;73.26
20860;BME280;10590;48.154;11.514;2023-03-26T18:22:19;94477.19;;;5.86;72.53
20860;BME280;10590;48.154;11.514;2023-03-26T18:27:22;94489.34;;;5.87;72.07
20860;BME280;10590;48.154;11.514;2023-03-26T18:32:25;94500.53;;;5.67;72.09
20860;BME280;10590;48.154;11.514;2023-03-26T18:37:33;94497.91;;;5.58;72.50
20860;BME280;10590;48.154;11.514;2023-03-26T18:42:39;94498.53;;;5.55;72.33
20860;BME280;10590;48.154;11.514;2023-03-26T18:47:53;94491.50;;;5.51;72.24
20860;BME280;10590;48.154;11.514;2023-03-26T18:52:58;94491.03;;;5.40;72.55
20860;BME280;10590;48.154;11.514;2023-03-26T18:58:17;94460.50;;;5.17;72.88
20860;BME280;10590;48.154;11.514;2023-03-26T19:03:23;94441.19;;;5.07;73.33
20860;BME280;10590;48.154;11.514;2023-03-26T19:08:30;94479.34;;;5.24;73.96
20860;BME280;10590;48.154;11.514;2023-03-26T19:13:34;94485.25;;;5.21;74.07
20860;BME280;10590;48.154;11.514;2023-03-26T19:18:37;94475.72;;;5.20;74.52
20860;BME280;10590;48.154;11.514;2023-03-26T19:23:43;94456.16;;;5.21;73.66
20860;BME280;10590;48.154;11.514;2023-03-26T19:28:48;94448.69;;;5.23;74.20
20860;BME280;10590;48.154;11.514;2023-03-26T19:33:53;94472.34;;;5.28;74.24
20860;BME280;10590;48.154;11.514;2023-03-26T19:39:09;94469.38;;;5.21;74.68
20860;BME280;10590;48.154;11.514;2023-03-26T19:44:18;94468.09;;;5.09;74.90
20860;BME280;10590;48.154;11.514;2023-03-26T19:49:26;94469.97;;;5.18;74.48
20860;BME280;10590;48.154;11.514;2023-03-26T19:54:29;94462.81;;;5.18;74.78
20860;BME280;10590;48.154;11.514;2023-03-26T19:59:31;94469.56;;;5.24;74.30
20860;BME280;10590;48.154;11.514;2023-03-26T20:04:33;94483.09;;;5.31;74.27
20860;BME280;10590;48.154;11.514;2023-03-26T20:09:36;94468.78;;;5.24;73.87
20860;BME280;10590;48.154;11.514;2023-03-26T20:14:38;94464.56;;;5.23;73.94
20860;BME280;10590;48.154;11.514;2023-03-26T20:19:42;94460.06;;;5.23;73.38
20860;BME280;10590;48.154;11.514;2023-03-26T20:24:46;94477.03;;;5.31;73.62
20860;BME280;10590;48.154;11.514;2023-03-26T20:29:48;94454.72;;;5.15;71.99
20860;BME280;10590;48.154;11.514;2023-03-26T20:34:50;94466.13;;;5.24;72.73
20860;BME280;10590;48.154;11.514;2023-03-26T20:39:55;94440.25;;;5.12;71.41
20860;BME280;10590;48.154;11.514;2023-03-26T20:44:58;94439.53;;;5.20;70.38
20860;BME280;10590;48.154;11.514;2023-03-26T20:50:00;94427.97;;;5.07;71.23
20860;BME280;10590;48.154;11.514;2023-03-26T20:55:04;94457.09;;;5.25;71.63
20860;BME280;10590;48.154;11.514;2023-03-26T21:00:09;94456.19;;;5.29;70.21
20860;BME280;10590;48.154;11.514;2023-03-26T21:05:19;94461.78;;;5.28;69.99
20860;BME280;10590;48.154;11.514;2023-03-26T21:10:26;94462.88;;;5.35;69.96
20860;BME280;10590;48.154;11.514;2023-03-26T21:15:30;94473.44;;;5.35;69.42
20860;BME280;10590;48.154;11.514;2023-03-26T21:20:33;94465.97;;;5.37;69.61
20860;BME280;10590;48.154;11.514;2023-03-26T21:25:42;94478.59;;;5.32;69.50
20860;BME280;10590;48.154;11.514;2023-03-26T21:30:49;94461.78;;;5.28;69.39
20860;BME280;10590;48.154;11.514;2023-03-26T21:35:52;94477.19;;;5.26;69.37
20860;BME280;10590;48.154;11.514;2023-03-26T21:41:00;94469.66;;;5.19;69.57
20860;BME280;10590;48.154;11.514;2023-03-26T21:46:03;94465.00;;;5.16;70.33
20860;BME280;10590;48.154;11.514;2023-03-26T21:51:06;94454.72;;;5.06;70.36
20860;BME280;10590;48.154;11.514;2023-03-26T21:56:17;94471.06;;;5.17;70.65
20860;BME280;10590;48.154;11.514;2023-03-26T22:01:28;94466.06;;;5.06;70.83
20860;BME280;10590;48.154;11.514;2023-03-26T22:06:37;94475.69;;;5.02;70.87
20860;BME280;10590;48.154;11.514;2023-03-26T22:11:43;94465.44;;;5.01;71.17
20860;BME280;10590;48.154;11.514;2023-03-26T22:16:45;94461.69;;;4.93;71.56
20860;BME280;10590;48.154;11.514;2023-03-26T22:21:47;94462.31;;;4.99;71.84
20860;BME280;10590;48.154;11.514;2023-03-26T22:26:50;94465.09;;;4.94;71.41
20860;BME280;10590;48.154;11.514;2023-03-26T22:31:52;94467.44;;;4.95;71.95
20860;BME280;10590;48.154;11.514;2023-03-26T22:36:53;94477.25;;;5.03;71.53
20860;BME280;10590;48.154;11.514;2023-03-26T22:41:56;94481.94;;;5.06;71.63
20860;BME280;10590;48.154;11.514;2023-03-26T22:47:00;94473.97;;;4.98;72.42
20860;BME280;10590;48.154;11.514;2023-03-26T22:52:02;94480.69;;;5.04;71.94
20860;BME280;10590;48.154;11.514;2023-03-26T22:57:06;94470.25;;;4.99;71.90
20860;BME280;10590;48.154;11.514;2023-03-26T23:02:08;94463.41;;;4.98;72.01
20860;BME280;10590;48.154;11.514;2023-03-26T23:07:11;94467.31;;;5.00;71.82
20860;BME280;10590;48.154;11.514;2023-03-26T23:12:14;94462.63;;;4.97;72.04
20860;BME280;10590;48.154;11.514;2023-03-26T23:17:17;94460.47;;;4.99;71.88
20860;BME280;10590;48.154;11.514;2023-03-26T23:22:18;94456.25;;;4.90;72.53
20860;BME280;10590;48.154;11.514;2023-03-26T23:27:22;94457.31;;;4.89;72.43
20860;BME280;10590;48.154;11.514;2023-03-26T23:32:23;94458.38;;;4.79;72.55
20860;BME280;10590;48.154;11.514;2023-03-26T23:37:25;94443.28;;;4.71;72.58
20860;BME280;10590;48.154;11.514;2023-03-26T23:42:30;94422.13;;;4.62;72.71
20860;BME280;10590;48.154;11.514;2023-03-26T23:47:33;94438.47;;;4.73;72.78
20860;BME280;10590;48.154;11.514;2023-03-26T23:52:35;94433.47;;;4.63;72.73
20860;BME280;10590;48.154;11.514;2023-03-26T23:57:39;94423.81;;;4.58;72.65
